Time;durP1;ratioP1;P1;durP2;ratioP2;P2;SDS_P1;SDS_P2;PMS_P1;PMS_P2;Temp;Humidity;BMP_temperature;BMP_pressure;BME280_temperature;BME280_humidity;BME280_pressure;Samples;Min_cycle;Max_cycle;Signal;HPM_P1;HPM_P2
2021/06/21 00:00:49;;;;;;;8.98;6.20;;;28.30;93.10;;;;;;5129663;27;20276;-77
2021/06/21 00:03:16;;;;;;;8.15;6.45;;;28.20;93.30;;;;;;5129334;27;20202;-76
2021/06/21 00:05:42;;;;;;;8.60;7.13;;;28.20;93.40;;;;;;5128997;27;20283;-77
2021/06/21 00:08:09;;;;;;;7.25;6.65;;;28.20;93.60;;;;;;5129605;27;20201;-77
2021/06/21 00:10:36;;;;;;;8.93;8.02;;;28.20;93.70;;;;;;5129338;28;20201;-77
2021/06/21 00:13:04;;;;;;;9.02;7.40;;;28.10;93.70;;;;;;5129527;27;20285;-76
2021/06/21 00:15:30;;;;;;;8.85;7.75;;;28.10;93.80;;;;;;5129089;28;21107;-76
2021/06/21 00:17:57;;;;;;;12.27;7.53;;;28.10;93.90;;;;;;5128967;28;20675;-76
2021/06/21 00:20:25;;;;;;;10.45;8.48;;;28.20;94.10;;;;;;5129064;27;20724;-77
2021/06/21 00:22:53;;;;;;;13.63;9.52;;;28.10;94.30;;;;;;5129152;28;20229;-76
2021/06/21 00:25:21;;;;;;;9.43;8.52;;;28.00;94.50;;;;;;5128668;27;20221;-77
2021/06/21 00:27:49;;;;;;;13.40;8.90;;;28.00;94.70;;;;;;5129350;27;20211;-76
2021/06/21 00:30:19;;;;;;;11.45;8.95;;;27.90;94.90;;;;;;5129255;28;20238;-76
2021/06/21 00:32:47;;;;;;;9.65;8.80;;;27.80;95.20;;;;;;5129651;28;20213;-76
2021/06/21 00:35:15;;;;;;;10.23;9.25;;;27.70;95.30;;;;;;5129325;27;20206;-77
2021/06/21 00:37:42;;;;;;;10.38;9.48;;;27.70;95.50;;;;;;5129541;27;20205;-80
2021/06/21 00:40:11;;;;;;;13.40;9.25;;;27.70;95.60;;;;;;5129339;28;20204;-81
2021/06/21 00:42:41;;;;;;;13.90;9.65;;;27.70;95.70;;;;;;5129337;28;20218;-81
2021/06/21 00:45:09;;;;;;;10.10;9.18;;;27.70;95.70;;;;;;5129203;28;20723;-81
2021/06/21 00:47:37;;;;;;;10.20;9.02;;;27.70;95.80;;;;;;5129285;28;20208;-82
2021/06/21 00:50:05;;;;;;;10.05;9.18;;;27.70;95.80;;;;;;5129530;28;20209;-82
2021/06/21 00:52:31;;;;;;;10.52;9.10;;;27.80;95.90;;;;;;5129426;27;20628;-79
2021/06/21 00:55:01;;;;;;;11.15;9.80;;;27.70;96.30;;;;;;5129053;28;20250;-79
2021/06/21 00:57:28;;;;;;;11.18;9.15;;;27.60;96.00;;;;;;5129001;28;20252;-78
2021/06/21 00:59:57;;;;;;;10.00;8.63;;;27.60;96.00;;;;;;5128951;28;20201;-79
2021/06/21 01:02:24;;;;;;;9.77;8.25;;;27.50;96.00;;;;;;5129035;28;20209;-78
2021/06/21 01:04:52;;;;;;;10.02;8.48;;;27.60;96.10;;;;;;5128632;28;20605;-75
2021/06/21 01:07:19;;;;;;;10.65;8.20;;;27.50;96.00;;;;;;5128642;27;20282;-77
2021/06/21 01:09:47;;;;;;;12.57;8.75;;;27.50;95.90;;;;;;5128983;28;21426;-77
2021/06/21 01:12:27;;;;;;;9.93;7.75;;;27.50;95.80;;;;;;5128827;28;20209;-75
2021/06/21 01:15:02;;;;;;;8.43;6.93;;;27.50;95.60;;;;;;5129209;27;20205;-76
2021/06/21 01:17:34;;;;;;;8.57;7.53;;;27.50;95.40;;;;;;5132217;27;20606;-76
2021/06/21 01:20:21;;;;;;;8.55;7.00;;;27.50;95.30;;;;;;5132602;27;20255;-76
2021/06/21 01:23:10;;;;;;;9.80;6.95;;;27.40;95.30;;;;;;5132331;27;20666;-80
2021/06/21 01:25:41;;;;;;;7.40;6.80;;;27.40;95.20;;;;;;5132599;27;20217;-80
2021/06/21 01:28:15;;;;;;;7.50;6.72;;;27.40;95.00;;;;;;5132928;27;20205;-79
2021/06/21 01:31:03;;;;;;;9.27;6.30;;;27.30;94.90;;;;;;5132669;27;20193;-79
2021/06/21 01:33:31;;;;;;;6.53;5.93;;;27.30;94.80;;;;;;5132590;27;20194;-79
2021/06/21 01:36:01;;;;;;;6.80;6.25;;;27.30;94.90;;;;;;5132084;27;20639;-79
2021/06/21 01:38:33;;;;;;;6.78;6.18;;;27.30;94.80;;;;;;5131950;27;20814;-79
2021/06/21 01:41:04;;;;;;;6.72;5.85;;;27.30;94.80;;;;;;5132671;27;20190;-79
2021/06/21 01:43:34;;;;;;;7.50;6.80;;;27.30;94.70;;;;;;5132404;27;20246;-79
2021/06/21 01:46:06;;;;;;;7.18;6.35;;;27.20;94.80;;;;;;5132261;27;20266;-78
2021/06/21 01:48:36;;;;;;;7.18;6.53;;;27.20;94.90;;;;;;5132065;27;20602;-78
2021/06/21 01:51:04;;;;;;;9.40;6.82;;;27.10;94.90;;;;;;5132247;27;20243;-79
2021/06/21 01:53:34;;;;;;;7.65;7.00;;;26.80;95.10;;;;;;5131979;27;20205;-79
2021/06/21 01:56:03;;;;;;;7.28;6.18;;;26.60;95.30;;;;;;5132236;27;20205;-78
2021/06/21 01:58:34;;;;;;;6.28;5.75;;;26.70;95.30;;;;;;5131930;27;20201;-79
2021/06/21 02:01:01;;;;;;;9.07;6.82;;;26.70;95.30;;;;;;5132169;27;20200;-79
2021/06/21 02:03:30;;;;;;;7.03;6.22;;;26.80;95.30;;;;;;5131855;27;20262;-77
2021/06/21 02:05:58;;;;;;;9.57;6.28;;;26.70;95.40;;;;;;5131477;27;20241;-78
2021/06/21 02:08:29;;;;;;;7.10;6.50;;;26.50;95.60;;;;;;5131697;27;20205;-78
2021/06/21 02:10:56;;;;;;;7.50;6.63;;;26.60;95.70;;;;;;5131816;27;20190;-79
2021/06/21 02:13:24;;;;;;;7.10;6.50;;;26.40;95.80;;;;;;5131405;27;20201;-79
2021/06/21 02:15:54;;;;;;;8.82;6.38;;;26.50;96.00;;;;;;5131731;27;20209;-79
2021/06/21 02:18:21;;;;;;;7.47;6.60;;;26.40;96.00;;;;;;5131702;27;20205;-79
2021/06/21 02:20:48;;;;;;;7.45;6.45;;;26.30;96.20;;;;;;5131497;27;20246;-79
2021/06/21 02:23:18;;;;;;;8.65;7.70;;;26.30;96.30;;;;;;5131269;27;20254;-79
2021/06/21 02:25:49;;;;;;;9.10;7.00;;;26.40;96.50;;;;;;5131012;27;20225;-79
2021/06/21 02:28:17;;;;;;;11.07;8.00;;;26.50;97.00;;;;;;5131630;27;20193;-79
2021/06/21 02:30:45;;;;;;;11.98;7.45;;;26.50;97.30;;;;;;5131257;27;20316;-79
2021/06/21 02:33:13;;;;;;;15.25;8.27;;;26.60;98.00;;;;;;5131442;27;20212;-77
2021/06/21 02:35:39;;;;;;;8.75;7.35;;;26.50;98.70;;;;;;5131241;27;20209;-77
2021/06/21 02:38:06;;;;;;;9.25;8.10;;;26.30;99.30;;;;;;5131082;27;20262;-78
2021/06/21 02:40:34;;;;;;;10.02;8.05;;;26.30;99.30;;;;;;5131017;27;20270;-78
2021/06/21 02:43:02;;;;;;;9.23;8.45;;;26.40;99.40;;;;;;5131070;27;20617;-78
2021/06/21 02:45:29;;;;;;;12.68;9.20;;;25.80;99.90;;;;;;5131248;27;20213;-77
2021/06/21 02:47:56;;;;;;;13.55;10.30;;;24.50;99.90;;;;;;5131757;27;20300;-79
2021/06/21 02:50:23;;;;;;;10.52;9.55;;;23.90;99.90;;;;;;5131516;27;20205;-79
2021/06/21 02:53:00;;;;;;;10.20;9.27;;;23.70;99.90;;;;;;5131347;27;20286;-78
2021/06/21 02:55:32;;;;;;;25.38;9.98;;;23.60;99.90;;;;;;5130964;27;20282;-77
2021/06/21 02:58:06;;;;;;;9.75;8.75;;;23.60;99.90;;;;;;5131269;27;20278;-77
2021/06/21 03:00:33;;;;;;;9.60;8.43;;;23.70;99.90;;;;;;5131001;27;20193;-79
2021/06/21 03:03:02;;;;;;;9.90;7.03;;;23.60;99.90;;;;;;5130994;27;20262;-78
2021/06/21 03:05:31;;;;;;;7.80;6.13;;;23.50;99.90;;;;;;5120921;27;20257;-75
2021/06/21 03:07:58;;;;;;;5.47;5.00;;;23.50;99.90;;;;;;5115057;27;20696;-75
2021/06/21 03:10:26;;;;;;;6.55;4.50;;;23.60;99.90;;;;;;5120686;27;20222;-76
2021/06/21 03:12:53;;;;;;;5.40;4.50;;;23.50;99.90;;;;;;5112592;27;20251;-76
2021/06/21 03:15:23;;;;;;;6.30;4.07;;;23.40;99.90;;;;;;5107478;27;20210;-76
2021/06/21 03:17:51;;;;;;;6.88;4.47;;;23.60;99.90;;;;;;5108088;28;20237;-76
2021/06/21 03:20:19;;;;;;;4.88;4.40;;;23.60;99.90;;;;;;5107318;28;20679;-75
2021/06/21 03:22:47;;;;;;;5.85;4.75;;;23.60;99.90;;;;;;5107878;28;20218;-76
2021/06/21 03:25:14;;;;;;;5.43;4.35;;;23.70;99.90;;;;;;5107957;28;20318;-76
2021/06/21 03:27:41;;;;;;;7.15;4.43;;;23.80;99.90;;;;;;5107341;28;20265;-76
2021/06/21 03:30:12;;;;;;;5.72;5.00;;;23.90;99.90;;;;;;5107196;28;20214;-77
2021/06/21 03:32:42;;;;;;;5.25;4.75;;;24.00;99.90;;;;;;5107254;28;20202;-76
2021/06/21 03:35:11;;;;;;;6.57;4.28;;;24.20;99.90;;;;;;5107267;28;20277;-79
2021/06/21 03:37:39;;;;;;;4.47;4.07;;;24.40;99.90;;;;;;5106481;28;20214;-76
2021/06/21 03:40:07;;;;;;;4.60;4.20;;;24.60;99.90;;;;;;5107357;28;20205;-76
2021/06/21 03:42:34;;;;;;;4.95;4.10;;;24.90;99.90;;;;;;5107442;28;20209;-76
2021/06/21 03:45:01;;;;;;;4.10;3.78;;;25.10;99.90;;;;;;5107248;28;20206;-75
2021/06/21 03:47:28;;;;;;;4.32;3.95;;;25.20;99.90;;;;;;5106768;28;20322;-76
2021/06/21 03:49:56;;;;;;;4.15;3.75;;;25.30;99.90;;;;;;5106725;28;20263;-76
2021/06/21 03:52:23;;;;;;;4.10;3.80;;;25.40;99.90;;;;;;5106645;28;20216;-76
2021/06/21 03:55:05;;;;;;;4.65;3.60;;;25.50;99.90;;;;;;5106755;28;20205;-76
2021/06/21 03:57:32;;;;;;;4.78;4.28;;;25.50;99.90;;;;;;5106751;28;20218;-76
2021/06/21 03:59:59;;;;;;;5.22;4.05;;;25.60;99.90;;;;;;5122529;27;20615;-77
2021/06/21 04:02:26;;;;;;;4.82;3.92;;;25.60;99.90;;;;;;5120358;27;20258;-77
2021/06/21 04:04:52;;;;;;;5.32;4.53;;;25.60;99.90;;;;;;5108035;28;20244;-76
2021/06/21 04:07:20;;;;;;;4.70;4.25;;;25.70;99.90;;;;;;5108058;28;20623;-77
2021/06/21 04:09:47;;;;;;;5.35;4.85;;;25.60;99.90;;;;;;5120062;28;20205;-76
2021/06/21 04:12:15;;;;;;;5.60;4.43;;;25.60;99.90;;;;;;5128536;27;20255;-76
2021/06/21 04:14:41;;;;;;;4.80;4.22;;;25.60;99.90;;;;;;5128777;28;20190;-76
2021/06/21 04:17:08;;;;;;;5.10;4.68;;;25.60;99.90;;;;;;5128605;27;20656;-76
2021/06/21 04:19:35;;;;;;;5.80;5.30;;;25.60;99.90;;;;;;5128388;27;20237;-76
2021/06/21 04:22:01;;;;;;;6.18;5.68;;;25.70;99.90;;;;;;5127909;27;20209;-77
2021/06/21 04:24:29;;;;;;;5.18;4.78;;;25.70;99.90;;;;;;5128398;28;20203;-76
2021/06/21 04:26:56;;;;;;;6.53;5.30;;;25.70;99.90;;;;;;5128202;27;20247;-77
2021/06/21 04:29:23;;;;;;;8.93;5.30;;;25.70;99.90;;;;;;5128409;27;20254;-77
2021/06/21 04:31:50;;;;;;;6.20;5.60;;;25.80;99.90;;;;;;5128436;28;20201;-76
2021/06/21 04:34:16;;;;;;;6.28;5.65;;;25.80;99.90;;;;;;5128343;28;20306;-76
2021/06/21 04:36:43;;;;;;;6.18;5.65;;;25.80;99.90;;;;;;5126935;27;20728;-77
2021/06/21 04:39:10;;;;;;;7.97;6.07;;;25.80;99.90;;;;;;5124058;28;20247;-78
2021/06/21 04:41:38;;;;;;;9.55;6.07;;;25.70;99.90;;;;;;5127735;28;20208;-78
2021/06/21 04:44:05;;;;;;;7.03;6.35;;;25.70;99.90;;;;;;5128102;28;20250;-77
2021/06/21 04:46:33;;;;;;;7.00;6.30;;;25.70;99.90;;;;;;5127543;28;20679;-77
2021/06/21 04:49:00;;;;;;;9.65;6.88;;;25.80;99.90;;;;;;5127929;27;20204;-77
2021/06/21 04:51:28;;;;;;;9.20;7.45;;;25.70;99.90;;;;;;5128110;27;20204;-77
2021/06/21 04:53:54;;;;;;;8.63;7.50;;;25.70;99.90;;;;;;5131444;27;20201;-77
2021/06/21 04:56:22;;;;;;;8.55;7.80;;;25.70;99.90;;;;;;5131462;27;20229;-77
2021/06/21 04:58:50;;;;;;;10.10;7.97;;;25.80;99.90;;;;;;5131270;27;20201;-77
2021/06/21 05:01:16;;;;;;;10.25;8.38;;;25.70;99.90;;;;;;5131578;27;20194;-77
2021/06/21 05:03:43;;;;;;;8.10;7.35;;;25.70;99.90;;;;;;5130934;27;20660;-78
2021/06/21 05:06:09;;;;;;;10.55;7.95;;;25.70;99.90;;;;;;5130811;27;20282;-77
2021/06/21 05:08:36;;;;;;;8.65;7.95;;;25.70;99.90;;;;;;5130704;27;20363;-72
2021/06/21 05:11:03;;;;;;;9.07;8.27;;;25.80;99.90;;;;;;5127760;27;20206;-71
2021/06/21 05:13:29;;;;;;;8.98;7.55;;;25.70;99.90;;;;;;5130690;27;20205;-71
2021/06/21 05:15:57;;;;;;;10.02;7.88;;;25.70;99.90;;;;;;5131218;27;20622;-71
2021/06/21 05:18:24;;;;;;;8.90;7.70;;;25.50;99.90;;;;;;5130905;27;20198;-71
2021/06/21 05:20:50;;;;;;;8.75;7.88;;;25.40;99.90;;;;;;5130898;27;20217;-71
2021/06/21 05:23:17;;;;;;;8.07;7.15;;;25.50;99.90;;;;;;5125484;27;20247;-71
2021/06/21 05:25:44;;;;;;;8.55;7.75;;;25.50;99.90;;;;;;5127787;27;20497;-71
2021/06/21 05:28:10;;;;;;;8.60;7.65;;;25.50;99.90;;;;;;5127289;27;20217;-71
2021/06/21 05:30:37;;;;;;;9.43;8.20;;;25.60;99.90;;;;;;5126183;27;20233;-71
2021/06/21 05:33:05;;;;;;;9.95;9.05;;;25.60;99.90;;;;;;5129827;27;20270;-71
2021/06/21 05:35:32;;;;;;;11.35;8.88;;;25.60;99.90;;;;;;5130556;27;20193;-71
2021/06/21 05:37:58;;;;;;;9.30;8.43;;;25.50;99.90;;;;;;5130641;27;20201;-71
2021/06/21 05:40:25;;;;;;;9.65;8.27;;;25.60;99.90;;;;;;5130183;27;20732;-71
2021/06/21 05:42:52;;;;;;;12.88;8.45;;;25.60;99.90;;;;;;5130172;27;20205;-71
2021/06/21 05:45:19;;;;;;;9.60;8.70;;;25.60;99.90;;;;;;5130498;27;20205;-71
2021/06/21 05:47:46;;;;;;;8.80;8.00;;;25.50;99.90;;;;;;5130317;27;20546;-71
2021/06/21 05:50:15;;;;;;;12.23;8.73;;;25.60;99.90;;;;;;5130492;27;20201;-72
2021/06/21 05:52:41;;;;;;;11.25;10.18;;;25.70;99.90;;;;;;5130049;27;20216;-72
2021/06/21 05:55:09;;;;;;;9.93;9.05;;;25.80;99.90;;;;;;5130144;27;20193;-72
2021/06/21 05:57:36;;;;;;;10.38;9.25;;;25.60;99.90;;;;;;5128856;27;20262;-71
2021/06/21 06:00:06;;;;;;;11.13;9.57;;;25.80;99.90;;;;;;5128512;27;20274;-71
2021/06/21 06:02:32;;;;;;;9.85;9.05;;;25.70;99.90;;;;;;5130599;27;20204;-71
2021/06/21 06:04:59;;;;;;;13.10;9.23;;;25.80;99.90;;;;;;5131137;27;20710;-72
2021/06/21 06:07:27;;;;;;;12.00;9.82;;;25.80;99.90;;;;;;5130962;27;20229;-72
2021/06/21 06:09:54;;;;;;;9.98;8.80;;;25.80;99.90;;;;;;5131254;27;20589;-72
2021/06/21 06:12:20;;;;;;;11.38;9.50;;;25.90;99.90;;;;;;5130720;27;20549;-71
2021/06/21 06:14:48;;;;;;;11.00;9.93;;;26.00;99.90;;;;;;5130815;27;20217;-72
2021/06/21 06:17:14;;;;;;;10.82;9.82;;;25.80;99.90;;;;;;5130697;27;20205;-72
2021/06/21 06:19:41;;;;;;;10.48;9.40;;;25.30;99.90;;;;;;5130580;27;20202;-72
2021/06/21 06:22:08;;;;;;;11.25;9.73;;;25.40;99.90;;;;;;5130640;27;20376;-72
2021/06/21 06:24:36;;;;;;;12.02;10.80;;;25.60;99.90;;;;;;5130279;27;20668;-72
2021/06/21 06:27:03;;;;;;;13.55;10.00;;;25.70;99.90;;;;;;5119439;27;20683;-72
2021/06/21 06:29:31;;;;;;;9.98;8.98;;;25.80;99.90;;;;;;5110198;28;20365;-71
2021/06/21 06:31:59;;;;;;;11.75;9.80;;;25.90;99.90;;;;;;5110304;28;20206;-72
2021/06/21 06:34:25;;;;;;;11.27;10.32;;;26.00;99.90;;;;;;5109944;28;20208;-72
2021/06/21 06:36:53;;;;;;;11.07;9.85;;;25.80;99.90;;;;;;5110316;28;20255;-71
2021/06/21 06:39:20;;;;;;;11.55;9.88;;;25.90;99.90;;;;;;5110039;28;20241;-72
2021/06/21 06:41:48;;;;;;;11.35;10.18;;;26.10;99.90;;;;;;5109582;28;20733;-72
2021/06/21 06:44:15;;;;;;;10.57;9.60;;;26.10;99.90;;;;;;5110017;28;20201;-71
2021/06/21 06:46:42;;;;;;;11.13;10.10;;;25.90;99.90;;;;;;5110074;27;20194;-72
2021/06/21 06:49:09;;;;;;;11.82;10.38;;;26.00;99.90;;;;;;5117000;27;20226;-77
2021/06/21 06:51:39;;;;;;;9.75;9.02;;;26.10;99.90;;;;;;5122486;27;20803;-76
2021/06/21 06:54:10;;;;;;;11.35;10.05;;;26.10;99.90;;;;;;5115246;27;20599;-75
2021/06/21 06:59:23;;;;;;;11.07;9.93;;;26.30;99.90;;;;;;5109507;28;20812;-75
2021/06/21 07:01:49;;;;;;;12.07;10.32;;;26.40;99.90;;;;;;5109647;28;20258;-75
2021/06/21 07:04:16;;;;;;;11.32;9.77;;;26.50;99.90;;;;;;5109421;28;20206;-74
2021/06/21 07:06:43;;;;;;;12.73;10.27;;;26.60;99.90;;;;;;5109497;28;20191;-75
2021/06/21 07:09:10;;;;;;;10.95;9.30;;;26.60;99.90;;;;;;5109018;28;20753;-75
2021/06/21 07:11:37;;;;;;;13.20;10.07;;;26.70;99.90;;;;;;5109226;28;20202;-75
2021/06/21 07:14:04;;;;;;;11.65;9.77;;;26.80;99.90;;;;;;5108334;28;20739;-75
2021/06/21 07:16:32;;;;;;;10.93;9.82;;;26.60;99.90;;;;;;5114380;27;20798;-75
2021/06/21 07:18:59;;;;;;;10.60;9.55;;;26.60;99.90;;;;;;5129051;27;20261;-75
2021/06/21 07:21:25;;;;;;;10.73;9.63;;;26.60;99.90;;;;;;5128608;27;20257;-75
2021/06/21 07:23:52;;;;;;;11.15;10.05;;;26.60;99.90;;;;;;5128739;27;20201;-75
2021/06/21 07:26:19;;;;;;;11.35;10.32;;;26.70;99.90;;;;;;5129126;27;20243;-76
2021/06/21 07:28:47;;;;;;;11.48;9.48;;;26.70;99.90;;;;;;5128355;27;20221;-75
2021/06/21 07:31:13;;;;;;;10.95;9.95;;;26.80;99.90;;;;;;5128405;27;20549;-75
2021/06/21 07:33:41;;;;;;;10.05;9.10;;;26.80;99.90;;;;;;5128293;27;20596;-75
2021/06/21 07:36:08;;;;;;;10.68;9.57;;;26.80;99.90;;;;;;5126269;27;20202;-75
2021/06/21 07:38:35;;;;;;;10.07;9.13;;;26.70;99.90;;;;;;5128862;27;20204;-75
2021/06/21 07:41:02;;;;;;;11.25;10.15;;;26.70;99.90;;;;;;5128349;27;20193;-75
2021/06/21 07:43:29;;;;;;;9.68;8.75;;;26.60;99.90;;;;;;5128080;27;20672;-75
2021/06/21 07:45:55;;;;;;;7.90;7.20;;;26.60;99.90;;;;;;5128611;27;20246;-75
2021/06/21 07:48:22;;;;;;;7.97;7.07;;;26.70;99.90;;;;;;5128393;27;20699;-75
2021/06/21 07:50:51;;;;;;;10.32;6.25;;;26.80;99.90;;;;;;5128433;27;20197;-75
2021/06/21 07:53:18;;;;;;;6.57;5.97;;;26.50;99.90;;;;;;5128269;27;20195;-75
2021/06/21 07:55:45;;;;;;;8.52;7.82;;;26.60;99.90;;;;;;5127669;27;20214;-78
2021/06/21 07:58:11;;;;;;;8.70;8.00;;;26.80;99.90;;;;;;5127511;27;20663;-78
2021/06/21 08:00:40;;;;;;;8.13;7.35;;;26.90;99.90;;;;;;5127606;27;20273;-75
2021/06/21 08:03:10;;;;;;;8.05;7.25;;;27.00;99.90;;;;;;5125137;27;20246;-75
2021/06/21 08:05:37;;;;;;;8.48;6.55;;;27.00;99.90;;;;;;5126681;27;20231;-75
2021/06/21 08:08:06;;;;;;;7.90;6.22;;;27.10;99.90;;;;;;5127716;27;20229;-75
2021/06/21 08:10:33;;;;;;;7.45;5.95;;;27.20;99.90;;;;;;5127947;27;20407;-74
2021/06/21 08:13:00;;;;;;;7.05;6.05;;;27.20;99.90;;;;;;5128252;28;20202;-75
2021/06/21 08:15:27;;;;;;;9.40;6.07;;;27.40;99.90;;;;;;5117338;28;20195;-75
2021/06/21 08:17:54;;;;;;;7.32;6.05;;;27.40;99.90;;;;;;5115152;28;20629;-74
2021/06/21 08:20:21;;;;;;;6.93;5.38;;;27.30;99.90;;;;;;5127973;28;20309;-74
2021/06/21 08:22:47;;;;;;;6.68;5.40;;;27.40;99.90;;;;;;5127573;28;20254;-75
2021/06/21 08:25:16;;;;;;;5.05;4.63;;;27.40;99.90;;;;;;5131435;27;20254;-75
2021/06/21 08:27:42;;;;;;;5.25;4.75;;;27.40;99.90;;;;;;5131934;27;20225;-75
2021/06/21 08:30:10;;;;;;;5.85;3.30;;;27.40;99.90;;;;;;5131223;27;20202;-75
2021/06/21 08:32:39;;;;;;;5.70;3.30;;;27.40;99.50;;;;;;5132473;27;20246;-75
2021/06/21 08:35:07;;;;;;;4.88;3.10;;;27.40;98.90;;;;;;5132256;27;20212;-75
2021/06/21 08:37:33;;;;;;;3.67;3.38;;;27.40;98.80;;;;;;5131625;27;20598;-75
2021/06/21 08:40:00;;;;;;;4.35;3.35;;;27.40;99.20;;;;;;5131453;27;20201;-75
2021/06/21 08:42:28;;;;;;;6.75;4.05;;;27.40;99.60;;;;;;5126412;27;20193;-75
2021/06/21 08:44:54;;;;;;;5.93;4.00;;;27.30;99.90;;;;;;5131197;27;20663;-75
2021/06/21 08:47:23;;;;;;;6.78;3.85;;;26.60;99.10;;;;;;5131667;27;20202;-75
2021/06/21 08:49:50;;;;;;;9.32;3.40;;;26.40;99.70;;;;;;5129848;27;20233;-74
2021/06/21 08:52:19;;;;;;;5.82;3.50;;;26.30;99.90;;;;;;5132087;27;20251;-75
2021/06/21 08:54:47;;;;;;;9.25;3.60;;;26.40;99.90;;;;;;5131749;27;20197;-75
2021/06/21 08:57:14;;;;;;;3.17;2.95;;;26.40;99.90;;;;;;5131751;27;20210;-75
2021/06/21 08:59:42;;;;;;;5.35;2.67;;;26.30;99.90;;;;;;5131593;27;20210;-75
2021/06/21 09:02:12;;;;;;;3.60;2.78;;;26.50;99.90;;;;;;5129790;27;20193;-74
2021/06/21 09:04:40;;;;;;;3.50;3.10;;;26.70;99.90;;;;;;5131775;27;20221;-74
2021/06/21 09:07:19;;;;;;;4.05;3.28;;;26.60;99.80;;;;;;5129330;27;20698;-74
2021/06/21 09:09:46;;;;;;;7.28;3.17;;;26.60;99.90;;;;;;5131121;27;20585;-75
2021/06/21 09:12:13;;;;;;;6.55;3.45;;;26.60;99.90;;;;;;5131278;27;20205;-75
2021/06/21 09:14:41;;;;;;;4.93;3.65;;;26.90;99.90;;;;;;5130328;27;20237;-75
2021/06/21 09:17:10;;;;;;;4.47;3.70;;;27.20;99.90;;;;;;5129906;27;20288;-74
2021/06/21 09:19:53;;;;;;;5.60;4.43;;;27.40;99.90;;;;;;5130240;27;20625;-74
2021/06/21 09:22:31;;;;;;;6.18;4.22;;;27.50;98.60;;;;;;5129054;27;20921;-74
2021/06/21 09:24:59;;;;;;;6.95;3.85;;;27.40;98.00;;;;;;5129886;27;20197;-74
2021/06/21 09:27:27;;;;;;;9.93;3.90;;;27.20;98.70;;;;;;5128448;27;20198;-74
2021/06/21 09:29:55;;;;;;;8.48;4.43;;;27.20;98.90;;;;;;5130576;27;20312;-74
2021/06/21 09:32:38;;;;;;;7.03;4.43;;;27.50;99.70;;;;;;5130702;27;20202;-74
2021/06/21 09:35:06;;;;;;;6.93;4.03;;;27.60;99.30;;;;;;5130629;27;20186;-74
2021/06/21 09:37:43;;;;;;;3.85;3.55;;;27.70;98.60;;;;;;5129826;27;20226;-74
2021/06/21 09:40:24;;;;;;;7.45;4.05;;;27.50;98.00;;;;;;5125712;27;20262;-74
2021/06/21 09:42:50;;;;;;;6.93;4.22;;;27.60;98.20;;;;;;5128329;27;20202;-74
2021/06/21 09:45:18;;;;;;;6.72;4.13;;;27.50;98.40;;;;;;5130529;27;20254;-74
2021/06/21 09:47:45;;;;;;;5.85;3.90;;;27.70;98.60;;;;;;5130523;27;20190;-74
2021/06/21 09:50:16;;;;;;;4.90;3.80;;;27.60;98.10;;;;;;5130314;27;20233;-74
2021/06/21 09:52:54;;;;;;;7.05;4.15;;;27.70;98.00;;;;;;5129698;27;20571;-74
2021/06/21 09:55:34;;;;;;;4.47;4.03;;;27.70;97.90;;;;;;5130393;27;20224;-74
2021/06/21 09:58:07;;;;;;;5.53;3.85;;;27.30;98.60;;;;;;5129776;27;20300;-74
2021/06/21 10:00:36;;;;;;;4.20;3.58;;;27.30;98.60;;;;;;5127464;27;20735;-74
2021/06/21 10:03:08;;;;;;;4.03;3.40;;;27.30;98.80;;;;;;5129925;27;20206;-74
2021/06/21 10:05:39;;;;;;;3.75;3.40;;;27.50;98.90;;;;;;5129817;27;20218;-74
2021/06/21 10:08:06;;;;;;;4.47;2.90;;;27.70;99.00;;;;;;5130325;27;20196;-74
2021/06/21 10:10:35;;;;;;;3.50;3.30;;;28.00;99.10;;;;;;5129803;27;20201;-74
2021/06/21 10:13:02;;;;;;;3.70;3.40;;;28.20;98.30;;;;;;5129916;27;20220;-74
2021/06/21 10:15:29;;;;;;;4.43;3.65;;;28.30;98.10;;;;;;5129953;27;20197;-74
2021/06/21 10:17:57;;;;;;;3.67;3.38;;;28.30;97.80;;;;;;5130426;27;20233;-74
2021/06/21 10:20:24;;;;;;;7.95;3.63;;;28.20;97.70;;;;;;5129720;27;20217;-74
2021/06/21 10:22:51;;;;;;;4.13;3.50;;;28.10;98.00;;;;;;5129804;27;20205;-74
2021/06/21 10:25:19;;;;;;;4.50;3.67;;;28.00;97.90;;;;;;5125876;27;20649;-74
2021/06/21 10:27:46;;;;;;;5.18;3.70;;;28.00;98.30;;;;;;5128153;27;20204;-74
2021/06/21 10:30:16;;;;;;;3.88;3.58;;;27.90;98.20;;;;;;5128304;27;20225;-74
2021/06/21 10:32:43;;;;;;;4.13;3.35;;;28.00;98.50;;;;;;5128624;27;20288;-74
2021/06/21 10:35:12;;;;;;;3.38;3.05;;;28.20;98.10;;;;;;5129324;27;20717;-73
2021/06/21 10:37:40;;;;;;;5.40;3.45;;;28.50;97.80;;;;;;5130469;27;20202;-73
2021/06/21 10:40:09;;;;;;;3.33;3.03;;;28.70;97.50;;;;;;5130521;27;20209;-73
2021/06/21 10:42:43;;;;;;;5.55;3.33;;;28.80;97.30;;;;;;5130455;27;20266;-73
2021/06/21 10:45:17;;;;;;;3.47;3.17;;;29.10;96.90;;;;;;5130682;27;20225;-73
2021/06/21 10:47:45;;;;;;;3.25;3.05;;;29.10;96.50;;;;;;5123548;27;20197;-74
2021/06/21 10:50:21;;;;;;;4.75;3.60;;;29.10;96.50;;;;;;5130433;27;20253;-73
2021/06/21 10:52:58;;;;;;;4.32;3.30;;;29.20;96.50;;;;;;5128372;27;20190;-73
2021/06/21 10:55:48;;;;;;;5.47;3.28;;;29.30;96.20;;;;;;5129519;27;20209;-73
2021/06/21 10:58:45;;;;;;;3.85;3.20;;;29.40;96.40;;;;;;5128941;27;20190;-73
2021/06/21 11:01:23;;;;;;;3.42;3.10;;;29.60;96.40;;;;;;5128419;27;20715;-73
2021/06/21 11:03:50;;;;;;;3.08;2.88;;;29.70;96.00;;;;;;5127910;27;20333;-73
2021/06/21 11:06:39;;;;;;;3.42;3.10;;;30.00;95.70;;;;;;5128762;27;20233;-73
2021/06/21 11:09:10;;;;;;;3.58;2.92;;;30.20;95.20;;;;;;5129923;27;20217;-73
2021/06/21 11:11:49;;;;;;;5.10;3.35;;;30.20;94.90;;;;;;5129900;27;20201;-72
2021/06/21 11:14:18;;;;;;;6.30;2.97;;;30.20;94.90;;;;;;5125203;27;20193;-73
2021/06/21 11:16:46;;;;;;;3.67;2.83;;;30.30;94.70;;;;;;5129618;27;20206;-74
2021/06/21 11:19:34;;;;;;;5.10;2.97;;;30.30;94.80;;;;;;5129945;27;20206;-73
2021/06/21 11:22:08;;;;;;;8.82;3.72;;;30.30;95.30;;;;;;5128585;27;20237;-74
2021/06/21 11:24:57;;;;;;;3.72;3.13;;;30.30;95.30;;;;;;5126374;27;20659;-74
2021/06/21 11:27:41;;;;;;;3.42;2.30;;;30.20;95.40;;;;;;5128427;27;20203;-73
2021/06/21 11:30:24;;;;;;;5.03;3.15;;;30.20;95.50;;;;;;5128858;27;20213;-73
2021/06/21 11:32:56;;;;;;;3.78;2.70;;;30.20;95.40;;;;;;5124530;27;20197;-73
2021/06/21 11:35:58;;;;;;;2.97;2.70;;;30.10;95.10;;;;;;5128950;27;20269;-73
2021/06/21 11:38:43;;;;;;;3.63;2.47;;;30.10;95.40;;;;;;5044355;28;20199;-73
2021/06/21 11:41:19;;;;;;;3.75;3.00;;;30.00;94.90;;;;;;5120904;27;20332;-76
2021/06/21 11:43:47;;;;;;;6.53;3.08;;;30.00;95.10;;;;;;5127269;27;20718;-73
2021/06/21 11:46:48;;;;;;;5.80;3.30;;;30.00;95.50;;;;;;5128387;27;20274;-74
2021/06/21 11:49:17;;;;;;;4.35;2.80;;;30.00;94.80;;;;;;5125853;27;20209;-74
2021/06/21 11:51:54;;;;;;;4.22;2.95;;;30.10;94.60;;;;;;5128060;27;20213;-73
2021/06/21 11:54:23;;;;;;;6.45;2.50;;;30.10;94.30;;;;;;5127162;27;20211;-73
2021/06/21 11:56:54;;;;;;;3.78;2.40;;;30.20;94.30;;;;;;5125218;27;20285;-74
2021/06/21 11:59:32;;;;;;;4.68;2.72;;;30.20;94.00;;;;;;5127658;27;20254;-74
2021/06/21 12:02:00;;;;;;;6.75;2.95;;;30.20;93.70;;;;;;5126483;27;20670;-73
2021/06/21 12:04:28;;;;;;;5.97;3.03;;;30.20;93.70;;;;;;5127659;27;20456;-73
2021/06/21 12:06:54;;;;;;;4.75;2.05;;;30.30;93.60;;;;;;5127856;27;20194;-74
2021/06/21 12:09:22;;;;;;;7.53;2.92;;;30.30;93.20;;;;;;5127554;27;20628;-73
2021/06/21 12:11:52;;;;;;;4.55;2.97;;;30.40;93.40;;;;;;5127707;27;20632;-74
2021/06/21 12:14:24;;;;;;;5.38;2.55;;;30.40;93.50;;;;;;5127696;28;20224;-74
2021/06/21 12:17:01;;;;;;;7.60;2.75;;;30.40;93.30;;;;;;5125211;28;20511;-74
2021/06/21 12:19:27;;;;;;;5.80;2.35;;;30.30;93.10;;;;;;5127436;28;20192;-74
2021/06/21 12:21:54;;;;;;;6.57;2.75;;;30.30;92.70;;;;;;5127329;28;20230;-74
2021/06/21 12:24:25;;;;;;;4.13;2.88;;;30.30;92.60;;;;;;5124194;28;20205;-74
2021/06/21 12:26:54;;;;;;;4.43;2.72;;;30.40;92.10;;;;;;5125231;28;20194;-74
2021/06/21 12:29:29;;;;;;;7.50;2.75;;;30.40;92.20;;;;;;5126396;27;20293;-74
2021/06/21 12:32:02;;;;;;;4.20;2.63;;;30.50;91.90;;;;;;5125869;28;20189;-73
2021/06/21 12:34:46;;;;;;;8.50;2.88;;;30.50;92.00;;;;;;5118767;28;20190;-73
2021/06/21 12:37:15;;;;;;;8.40;2.67;;;30.50;91.80;;;;;;5126354;28;20193;-74
2021/06/21 12:39:43;;;;;;;5.30;2.78;;;30.40;91.80;;;;;;5127805;28;20259;-74
2021/06/21 12:42:11;;;;;;;5.03;2.95;;;30.50;92.10;;;;;;5128175;28;20281;-74
2021/06/21 12:44:38;;;;;;;3.70;2.90;;;30.50;91.70;;;;;;5127474;27;20608;-74
2021/06/21 12:47:14;;;;;;;9.27;3.35;;;30.60;91.90;;;;;;5128310;27;20875;-74
2021/06/21 12:49:41;;;;;;;8.85;3.00;;;30.60;91.80;;;;;;5128233;27;20262;-74
2021/06/21 12:52:08;;;;;;;5.43;3.22;;;30.70;91.80;;;;;;5128260;27;20206;-74
2021/06/21 12:54:35;;;;;;;8.05;2.90;;;30.80;91.60;;;;;;5127454;28;20205;-73
2021/06/21 12:57:04;;;;;;;8.60;3.05;;;30.80;91.50;;;;;;5127606;28;20213;-74